Terminal Aerodrome Forecast
Issued by NWS Paducah, KY

Home | Current Version | Previous Version | Graphics & Text | Print | Product List | Glossary On
Versions: 1 2 3 4 5 6 7 8 9 10 11 12 13 14 15 16 17 18 19 20 21
353
FTUS43 KPAH 092320
TAFEVV
TAF
KEVV 092320Z 1000/1024 29008KT 5SM -SHSN SCT020 OVC040
      TEMPO 1000/1002 29013KT 2SM -SHSN BKN020
     FM100900 30010KT P6SM SCT030
     FM101400 29010KT P6SM BKN100=

USA.gov is the U.S. government's official web portal to all federal, state and local government web resources and services.